Time;durP1;ratioP1;P1;durP2;ratioP2;P2;SDS_P1;SDS_P2;PMS_P1;PMS_P2;Temp;Humidity;BMP_temperature;BMP_pressure;BME280_temperature;BME280_humidity;BME280_pressure;Samples;Min_cycle;Max_cycle;Signal;HPM_P1;HPM_P2
2023/09/12 07:08:56;;;;;;;10.00;8.30;;;;;;;;;;12920459;22;1526677;-84
2023/09/12 07:14:04;;;;;;;15.32;13.15;;;;;;;;;;12947135;23;20012;-85
2023/09/12 07:19:10;;;;;;;8.90;7.47;;;;;;;;;;12937539;23;20004;-83
2023/09/12 07:24:33;;;;;;;10.93;7.93;;;;;;;;;;12939242;23;20012;-85
2023/09/12 07:29:46;;;;;;;8.50;7.03;;;;;;;;;;12913043;23;20024;-83
2023/09/12 07:34:59;;;;;;;7.82;6.93;;;;;;;;;;12917912;23;20019;-84
2023/09/12 07:46:42;;;;;;;8.82;6.47;;;;;;;;;;12740128;23;20013;-87
2023/09/12 08:03:25;;;;;;;7.97;5.68;;;;;;;;;;12742567;23;19997;-88
2023/09/12 08:25:38;;;;;;;6.28;5.25;;;;;;;;;;12720256;23;20006;-88
2023/09/12 08:30:46;;;;;;;6.40;5.50;;;;;;;;;;12668942;23;20031;-87
2023/09/12 08:36:37;;;;;;;6.60;5.43;;;;;;;;;;12673897;23;20017;-89
2023/09/12 08:53:15;;;;;;;8.38;6.28;;;;;;;;;;12929426;23;20087;-86
2023/09/12 08:58:55;;;;;;;7.10;6.40;;;;;;;;;;12621431;23;20047;-86
2023/09/12 11:21:40;;;;;;;8.77;7.43;;;;;;;;;;12981145;22;20024;-90
2023/09/12 12:01:07;;;;;;;8.25;7.10;;;;;;;;;;12602565;23;20018;-85
2023/09/12 12:06:09;;;;;;;5.80;5.30;;;;;;;;;;12749839;23;20100;-83
2023/09/12 12:11:20;;;;;;;6.85;5.22;;;;;;;;;;12850984;22;20020;-82
2023/09/12 12:16:45;;;;;;;5.55;4.95;;;;;;;;;;12936084;23;20058;-84
2023/09/12 12:21:51;;;;;;;6.75;6.13;;;;;;;;;;12891291;23;20009;-84
2023/09/12 12:27:00;;;;;;;5.90;5.38;;;;;;;;;;12871148;23;20055;-83
2023/09/12 12:32:02;;;;;;;6.80;5.80;;;;;;;;;;12881316;23;20457;-82
2023/09/12 12:37:04;;;;;;;7.28;5.95;;;;;;;;;;12873548;23;20021;-83
2023/09/12 12:42:25;;;;;;;6.13;5.45;;;;;;;;;;12868369;23;20107;-83
2023/09/12 12:47:44;;;;;;;6.63;5.90;;;;;;;;;;12868059;23;20151;-83
2023/09/12 12:52:47;;;;;;;6.70;5.65;;;;;;;;;;12867995;23;20059;-84
2023/09/12 12:57:49;;;;;;;5.78;5.05;;;;;;;;;;12871445;23;20051;-83
2023/09/12 13:02:50;;;;;;;5.70;5.20;;;;;;;;;;12902579;23;20005;-82
2023/09/12 13:07:52;;;;;;;7.10;5.10;;;;;;;;;;12880491;23;19997;-82
2023/09/12 13:13:08;;;;;;;6.32;5.72;;;;;;;;;;12868784;23;20071;-83
2023/09/12 13:18:11;;;;;;;5.75;5.10;;;;;;;;;;12870446;23;20068;-82
2023/09/12 13:23:13;;;;;;;7.63;6.90;;;;;;;;;;12870799;23;20040;-82
2023/09/12 13:28:17;;;;;;;5.97;5.38;;;;;;;;;;12878685;23;20036;-83
2023/09/12 13:33:18;;;;;;;5.82;5.18;;;;;;;;;;12888400;23;20012;-83
2023/09/12 13:38:20;;;;;;;6.90;5.68;;;;;;;;;;12897411;23;20064;-83
2023/09/12 13:43:25;;;;;;;6.20;5.03;;;;;;;;;;12850197;23;20017;-82
2023/09/12 13:48:32;;;;;;;5.47;4.82;;;;;;;;;;12871967;23;20035;-83
2023/09/12 13:53:33;;;;;;;8.63;7.82;;;;;;;;;;12871101;23;20005;-84
2023/09/12 13:58:34;;;;;;;6.88;5.25;;;;;;;;;;12872127;23;20000;-82
2023/09/12 14:03:35;;;;;;;6.35;5.75;;;;;;;;;;12869503;23;20438;-83
2023/09/12 14:08:37;;;;;;;6.82;6.22;;;;;;;;;;12871652;23;20007;-83
2023/09/12 14:13:38;;;;;;;8.35;6.60;;;;;;;;;;12874395;23;19996;-81
2023/09/12 14:18:39;;;;;;;5.95;5.35;;;;;;;;;;12871619;23;20334;-81
2023/09/12 14:23:40;;;;;;;6.85;6.13;;;;;;;;;;12873935;23;20001;-82
2023/09/12 14:28:41;;;;;;;5.70;5.20;;;;;;;;;;12875297;23;20063;-82
2023/09/12 14:33:42;;;;;;;6.05;5.35;;;;;;;;;;12882157;23;20005;-80
2023/09/12 14:38:43;;;;;;;6.05;5.45;;;;;;;;;;12881761;23;20027;-81
2023/09/12 14:43:44;;;;;;;7.93;6.63;;;;;;;;;;12874329;23;20013;-83
2023/09/12 14:48:45;;;;;;;6.57;5.97;;;;;;;;;;12873417;23;20007;-82
2023/09/12 14:53:48;;;;;;;7.20;6.38;;;;;;;;;;12872762;23;20013;-82
2023/09/12 14:58:52;;;;;;;7.15;6.40;;;;;;;;;;12893677;22;20005;-82
2023/09/12 15:04:17;;;;;;;5.97;5.47;;;;;;;;;;12898948;23;20461;-82
2023/09/12 15:09:27;;;;;;;6.75;5.75;;;;;;;;;;12859285;23;20092;-81
2023/09/12 15:14:30;;;;;;;7.85;7.15;;;;;;;;;;12881535;23;20005;-83
2023/09/12 15:19:37;;;;;;;6.82;6.18;;;;;;;;;;12882561;23;20008;-81
2023/09/12 15:24:38;;;;;;;9.50;6.78;;;;;;;;;;12879568;23;20000;-81
2023/09/12 15:29:39;;;;;;;7.45;6.85;;;;;;;;;;12879120;23;20004;-81
2023/09/12 15:34:40;;;;;;;9.65;8.18;;;;;;;;;;12874228;23;20011;-83
2023/09/12 15:39:42;;;;;;;8.52;6.63;;;;;;;;;;12876186;23;20055;-81
2023/09/12 15:44:44;;;;;;;9.23;8.23;;;;;;;;;;12877733;23;20004;-80
2023/09/12 15:49:45;;;;;;;9.10;7.78;;;;;;;;;;12874703;23;20398;-81
2023/09/12 15:54:46;;;;;;;8.68;7.78;;;;;;;;;;12894537;23;20006;-81
2023/09/12 15:59:48;;;;;;;7.22;6.53;;;;;;;;;;12910914;22;20447;-81
2023/09/12 16:04:49;;;;;;;7.30;6.68;;;;;;;;;;12876371;23;20009;-81
2023/09/12 16:09:50;;;;;;;6.93;6.32;;;;;;;;;;12875299;23;20032;-81
2023/09/12 16:14:55;;;;;;;6.80;6.20;;;;;;;;;;12882185;23;20005;-82
2023/09/12 16:19:58;;;;;;;6.25;5.75;;;;;;;;;;12893209;23;20000;-81
2023/09/12 16:24:59;;;;;;;6.25;5.65;;;;;;;;;;12902888;23;19989;-84
2023/09/12 16:30:38;;;;;;;5.93;5.32;;;;;;;;;;12902299;23;20005;-86
